Time;durP1;ratioP1;P1;durP2;ratioP2;P2;SDS_P1;SDS_P2;PMS_P1;PMS_P2;Temp;Humidity;BMP_temperature;BMP_pressure;BME280_temperature;BME280_humidity;BME280_pressure;Samples;Min_cycle;Max_cycle;Signal;HPM_P1;HPM_P2
2022/01/11 00:00:35;;;;;;;;;27.25;13.00;;;;;4.55;71.86;102799.56;5093889;27;45472;-75
2022/01/11 00:03:02;;;;;;;;;19.75;16.50;;;;;4.48;72.43;102788.91;5092456;27;46059;-76
2022/01/11 00:05:33;;;;;;;;;28.75;16.50;;;;;4.56;72.40;102800.47;5093551;27;45414;-75
2022/01/11 00:07:59;;;;;;;;;25.25;15.75;;;;;4.47;71.51;102785.41;5093521;27;45598;-76
2022/01/11 00:10:34;;;;;;;;;15.50;12.75;;;;;4.29;72.70;102750.88;5106938;27;45569;-75
2022/01/11 00:13:00;;;;;;;;;19.50;15.00;;;;;4.30;72.08;102750.91;5093398;27;46685;-75
2022/01/11 00:15:28;;;;;;;;;19.00;16.00;;;;;4.48;72.00;102786.28;5093917;27;45451;-75
2022/01/11 00:17:55;;;;;;;;;19.25;10.00;;;;;4.60;72.23;102804.94;5094231;27;45370;-76
2022/01/11 00:20:21;;;;;;;;;14.50;13.00;;;;;4.62;72.70;102810.19;5092176;27;45346;-76
2022/01/11 00:25:25;;;;;;;;;24.33;19.00;;;;;4.60;71.84;102823.28;5093963;27;45775;-75
2022/01/11 00:27:50;;;;;;;;;15.50;12.50;;;;;4.52;71.52;102812.59;5091195;27;45379;-76
2022/01/11 00:30:15;;;;;;;;;17.75;15.75;;;;;4.56;72.29;102824.06;5093447;27;45405;-76
2022/01/11 00:32:46;;;;;;;;;30.00;17.75;;;;;4.47;72.37;102803.75;5093171;27;46013;-76
2022/01/11 00:35:15;;;;;;;;;27.00;19.75;;;;;4.54;72.26;102823.16;5075926;27;45509;-76
2022/01/11 00:37:41;;;;;;;;;17.75;16.50;;;;;4.41;72.56;102805.31;5095282;27;45389;-77
2022/01/11 00:40:08;;;;;;;;;18.75;18.50;;;;;4.37;72.46;102795.63;5093516;27;45488;-76
2022/01/11 00:42:34;;;;;;;;;28.75;22.25;;;;;4.30;73.38;102798.09;5068502;27;48357;-76
2022/01/11 00:45:00;;;;;;;;;23.50;16.25;;;;;4.31;71.69;102805.09;5093053;27;45600;-76
2022/01/11 00:47:26;;;;;;;;;30.50;19.50;;;;;4.53;72.30;102848.47;5091174;27;45355;-76
2022/01/11 00:49:53;;;;;;;;;27.00;21.25;;;;;4.33;72.19;102826.13;5093729;27;45462;-76
2022/01/11 00:52:19;;;;;;;;;24.00;16.50;;;;;4.44;72.83;102848.25;5105782;27;47552;-76
2022/01/11 00:54:44;;;;;;;;;24.50;18.25;;;;;4.44;72.17;102853.50;5093426;27;45441;-76
2022/01/11 00:57:09;;;;;;;;;25.50;19.50;;;;;4.48;72.37;102860.59;5091192;27;45414;-76
2022/01/11 00:59:35;;;;;;;;;22.25;18.25;;;;;4.45;71.81;102855.28;5091003;27;45262;-76
2022/01/11 01:02:00;;;;;;;;;29.50;19.00;;;;;4.09;71.85;102792.34;5075195;27;48287;-76
2022/01/11 01:04:26;;;;;;;;;26.50;16.00;;;;;4.45;72.88;102867.50;5093369;27;45471;-76
2022/01/11 01:06:52;;;;;;;;;20.00;18.00;;;;;4.38;72.68;102850.69;5091225;27;45443;-76
2022/01/11 01:09:17;;;;;;;;;24.00;20.50;;;;;4.32;72.39;102840.06;5093472;27;45393;-75
2022/01/11 01:11:44;;;;;;;;;38.00;17.25;;;;;4.32;72.18;102840.97;5078324;27;47760;-76
2022/01/11 01:14:10;;;;;;;;;23.75;19.75;;;;;4.31;73.26;102825.19;5076546;27;45446;-76
2022/01/11 01:16:36;;;;;;;;;29.25;25.75;;;;;4.32;72.31;102824.34;5076339;27;45272;-76
2022/01/11 01:19:02;;;;;;;;;34.75;22.50;;;;;4.39;72.56;102834.16;5092410;27;45332;-76
2022/01/11 01:21:27;;;;;;;;;23.00;19.25;;;;;4.32;73.25;102816.47;5077353;27;47833;-76
2022/01/11 01:23:53;;;;;;;;;23.25;20.25;;;;;4.34;72.64;102820.03;5091655;27;46102;-76
2022/01/11 01:26:18;;;;;;;;;33.50;23.00;;;;;4.47;72.79;102848.34;5091001;27;45757;-76
2022/01/11 01:28:47;;;;;;;;;22.50;19.25;;;;;4.27;72.55;102812.88;5072942;27;45536;-76
2022/01/11 01:31:13;;;;;;;;;33.00;23.50;;;;;4.35;72.20;102832.28;5094639;27;45520;-76
2022/01/11 01:39:51;;;;;;;;;25.75;20.75;;;;;4.47;72.53;102858.81;5039723;22;47368;-75
2022/01/11 01:42:23;;;;;;;;;26.25;20.50;;;;;4.47;71.90;102863.16;5069568;28;46450;-75
2022/01/11 01:44:48;;;;;;;;;28.00;20.75;;;;;4.29;73.04;102832.13;5073733;28;45425;-75
2022/01/11 01:47:14;;;;;;;;;24.00;20.75;;;;;4.47;72.60;102860.53;5073327;28;45466;-75
2022/01/11 01:49:39;;;;;;;;;32.75;20.25;;;;;4.44;72.20;102866.63;5062471;28;45478;-75
2022/01/11 01:52:05;;;;;;;;;26.50;23.50;;;;;4.43;72.96;102863.94;5071024;28;45818;-74
2022/01/11 01:54:31;;;;;;;;;25.50;15.75;;;;;4.37;72.89;102850.69;5069712;28;45407;-74
2022/01/11 01:56:56;;;;;;;;;27.25;23.75;;;;;4.37;72.65;102861.16;5043942;28;45374;-75
2022/01/11 01:59:22;;;;;;;;;30.50;23.50;;;;;4.45;72.53;102880.59;5042175;28;45527;-75
2022/01/11 02:01:49;;;;;;;;;32.75;26.00;;;;;4.35;72.44;102857.59;5065075;28;46162;-75
2022/01/11 02:04:17;;;;;;;;;37.25;25.75;;;;;4.35;72.74;102873.34;5075883;28;45425;-75
2022/01/11 02:06:43;;;;;;;;;29.00;22.50;;;;;4.26;73.12;102863.50;5077002;28;45493;-75
2022/01/11 02:09:11;;;;;;;;;28.75;26.75;;;;;4.40;73.52;102883.09;5075765;28;45419;-74
2022/01/11 02:11:36;;;;;;;;;29.00;19.00;;;;;4.30;72.60;102873.25;5058332;28;47761;-75
2022/01/11 02:14:02;;;;;;;;;33.25;26.25;;;;;4.34;72.99;102877.69;5076272;28;45372;-75
2022/01/11 02:16:27;;;;;;;;;33.50;28.75;;;;;4.33;73.20;102874.19;5077900;28;45406;-75
2022/01/11 02:18:53;;;;;;;;;36.75;29.75;;;;;4.43;73.00;102893.66;5076843;28;45472;-75
2022/01/11 02:21:19;;;;;;;;;38.33;24.33;;;;;4.45;72.23;102897.22;5056292;28;46445;-75
2022/01/11 02:23:45;;;;;;;;;40.50;31.75;;;;;4.20;71.94;102856.38;5058119;28;46254;-75
2022/01/11 02:26:11;;;;;;;;;31.00;26.00;;;;;4.44;72.66;102895.47;5074651;28;45587;-75
2022/01/11 02:28:37;;;;;;;;;37.75;34.50;;;;;4.38;72.69;102890.03;5064022;28;45758;-75
2022/01/11 02:31:12;;;;;;;;;38.25;27.00;;;;;4.44;72.55;102892.84;5062346;28;45313;-75
2022/01/11 02:33:44;;;;;;;;;23.33;17.00;;;;;4.41;71.97;102887.50;5073350;28;45567;-75
2022/01/11 02:36:21;;;;;;;;;34.00;28.00;;;;;4.40;72.42;102888.34;5057882;28;45724;-75
2022/01/11 02:38:48;;;;;;;;;41.00;28.25;;;;;4.42;73.05;102877.91;5076179;28;45469;-75
2022/01/11 02:41:14;;;;;;;;;41.25;29.75;;;;;4.26;72.28;102864.38;5058313;28;47447;-74
2022/01/11 02:43:42;;;;;;;;;33.75;24.25;;;;;4.27;72.31;102871.44;5076175;28;45521;-75
2022/01/11 02:46:07;;;;;;;;;35.25;27.50;;;;;4.29;72.44;102876.69;5057820;28;45268;-74
2022/01/11 02:48:33;;;;;;;;;34.75;28.75;;;;;4.32;72.56;102871.53;5076372;28;45520;-75
2022/01/11 02:50:58;;;;;;;;;27.00;18.00;;;;;4.15;72.58;102844.91;5076109;28;45398;-74
2022/01/11 02:53:24;;;;;;;;;41.75;23.50;;;;;4.30;72.40;102888.97;5075387;28;46096;-75
2022/01/11 02:55:50;;;;;;;;;34.00;27.50;;;;;4.30;72.96;102878.47;5041723;28;45421;-74
2022/01/11 02:58:15;;;;;;;;;31.25;27.25;;;;;4.29;72.42;102881.94;5074880;28;45552;-74
2022/01/11 03:00:41;;;;;;;;;27.25;24.00;;;;;4.20;72.40;102872.09;5074080;28;45623;-74
2022/01/11 03:03:09;;;;;;;;;28.25;22.50;;;;;4.24;72.77;102899.28;5075955;28;45567;-74
2022/01/11 03:05:35;;;;;;;;;36.50;26.50;;;;;4.23;72.35;102905.34;5076094;28;45414;-75
2022/01/11 03:08:00;;;;;;;;;25.50;20.50;;;;;4.23;72.56;102919.34;5075728;28;45370;-74
2022/01/11 03:12:51;;;;;;;;;34.75;25.25;;;;;4.25;73.13;102924.66;5066217;28;45330;-75
2022/01/11 03:15:17;;;;;;;;;29.50;22.75;;;;;4.27;73.04;102918.59;5070090;28;45418;-75
2022/01/11 03:17:42;;;;;;;;;35.50;22.75;;;;;4.14;72.48;102895.53;5075842;28;45240;-75
2022/01/11 03:20:08;;;;;;;;;28.75;22.50;;;;;4.27;73.34;102918.59;5075775;28;45261;-74
2022/01/11 03:22:34;;;;;;;;;33.25;23.25;;;;;4.29;72.65;102918.63;5076096;28;45463;-74
2022/01/11 03:24:59;;;;;;;;;34.50;23.25;;;;;4.32;72.77;102921.31;5075990;28;45802;-75
2022/01/11 03:27:25;;;;;;;;;31.25;22.00;;;;;4.24;72.94;102902.78;5067464;28;45571;-74
2022/01/11 03:29:53;;;;;;;;;44.75;29.25;;;;;4.19;72.74;102893.03;5065625;28;46176;-74
2022/01/11 03:32:19;;;;;;;;;30.75;26.25;;;;;4.28;72.47;102907.25;5056641;28;45486;-74
2022/01/11 03:34:46;;;;;;;;;35.00;17.00;;;;;4.19;72.43;102893.03;5057757;28;45654;-74
2022/01/11 03:37:14;;;;;;;;;21.00;13.25;;;;;4.24;72.26;102909.78;5076152;28;45345;-75
2022/01/11 03:39:40;;;;;;;;;34.75;23.00;;;;;4.04;72.46;102881.28;5071073;28;46152;-75
2022/01/11 03:42:05;;;;;;;;;30.00;21.25;;;;;4.16;72.80;102906.06;5054273;28;45600;-74
2022/01/11 03:44:31;;;;;;;;;38.25;22.50;;;;;4.10;73.01;102894.56;5052163;28;45477;-74
2022/01/11 03:46:58;;;;;;;;;36.00;23.00;;;;;4.23;72.83;102910.59;5038924;28;45363;-75
2022/01/11 03:49:23;;;;;;;;;34.50;25.00;;;;;4.00;72.22;102870.69;5054194;28;47257;-75
2022/01/11 03:51:50;;;;;;;;;23.75;19.00;;;;;3.95;72.18;102864.44;5047567;28;45538;-75
2022/01/11 03:54:22;;;;;;;;;26.25;20.50;;;;;4.08;72.84;102896.25;5043106;28;45542;-75
2022/01/11 03:56:48;;;;;;;;;23.50;19.25;;;;;4.16;72.20;102912.19;5047360;28;45520;-75
2022/01/11 03:59:14;;;;;;;;;28.00;19.75;;;;;4.03;72.41;102886.47;5054796;28;45351;-74
2022/01/11 04:01:39;;;;;;;;;28.50;23.75;;;;;4.16;72.42;102901.69;5052875;28;45465;-75
2022/01/11 04:04:06;;;;;;;;;23.50;22.25;;;;;4.17;71.90;102897.34;5055569;28;45733;-74
2022/01/11 04:06:32;;;;;;;;;25.00;23.50;;;;;4.08;72.65;102893.63;5054057;28;45322;-75
2022/01/11 04:08:57;;;;;;;;;32.75;17.50;;;;;4.05;72.25;102900.50;5054372;28;45950;-75
2022/01/11 04:11:23;;;;;;;;;28.00;20.50;;;;;3.91;72.69;102880.91;5066203;28;45372;-75
2022/01/11 04:13:49;;;;;;;;;38.00;29.25;;;;;4.02;73.17;102910.91;5052061;28;45465;-74
2022/01/11 04:16:15;;;;;;;;;25.25;20.25;;;;;3.91;72.69;102881.78;5052941;28;45337;-74
2022/01/11 04:18:41;;;;;;;;;27.50;22.25;;;;;4.03;72.90;102902.19;5054632;28;46573;-74
2022/01/11 04:21:06;;;;;;;;;33.75;19.25;;;;;3.93;73.38;102884.47;5053730;28;45401;-74
2022/01/11 04:23:33;;;;;;;;;27.75;24.50;;;;;3.93;72.88;102890.59;5053564;28;45837;-74
2022/01/11 04:25:59;;;;;;;;;26.00;18.25;;;;;4.07;72.06;102917.19;5050346;28;45363;-75
2022/01/11 04:28:27;;;;;;;;;24.00;18.50;;;;;4.08;72.75;102917.19;5054897;28;46141;-75
2022/01/11 04:30:53;;;;;;;;;28.50;21.25;;;;;4.09;73.38;102908.53;5054082;28;45268;-74
2022/01/11 04:33:19;;;;;;;;;27.25;19.00;;;;;4.10;72.71;102909.41;5035453;28;45671;-74
2022/01/11 04:35:48;;;;;;;;;34.00;25.50;;;;;3.94;71.85;102888.84;5053929;28;45463;-75
2022/01/11 04:38:17;;;;;;;;;23.75;21.75;;;;;4.07;72.68;102917.19;5051976;28;47737;-74
2022/01/11 04:40:43;;;;;;;;;26.75;23.75;;;;;4.10;73.39;102919.88;5046295;28;46297;-74
2022/01/11 04:43:08;;;;;;;;;38.00;23.00;;;;;4.00;72.71;102902.13;5053768;28;45248;-74
2022/01/11 04:45:34;;;;;;;;;31.25;25.00;;;;;4.13;72.74;102914.72;5054380;28;45383;-74
2022/01/11 04:47:59;;;;;;;;;40.25;26.50;;;;;4.14;73.39;102916.47;5059591;28;46883;-77
2022/01/11 04:50:26;;;;;;;;;30.75;23.00;;;;;3.94;72.45;102887.16;5041204;28;47925;-76
2022/01/11 04:52:52;;;;;;;;;31.50;22.00;;;;;4.14;73.26;102926.09;5052822;28;45519;-74
2022/01/11 04:55:17;;;;;;;;;31.50;24.00;;;;;4.09;73.13;102912.88;5052252;28;45350;-77
2022/01/11 04:57:43;;;;;;;;;31.00;22.75;;;;;4.12;73.12;102919.91;5051498;28;45560;-77
2022/01/11 05:00:09;;;;;;;;;31.50;24.25;;;;;3.98;72.79;102894.22;5051907;28;46146;-77
2022/01/11 05:02:35;;;;;;;;;24.25;23.25;;;;;4.05;73.21;102904.03;5054034;28;45243;-77
2022/01/11 05:05:00;;;;;;;;;26.75;23.25;;;;;4.15;72.47;102926.16;5053831;28;45359;-77
2022/01/11 05:07:26;;;;;;;;;29.25;24.25;;;;;4.14;72.63;102928.72;5042698;28;45458;-77
2022/01/11 05:09:53;;;;;;;;;31.00;25.00;;;;;4.06;72.10;102921.53;5052875;28;45421;-77
2022/01/11 05:12:19;;;;;;;;;27.25;20.00;;;;;3.99;72.00;102913.44;5051495;28;45669;-77
2022/01/11 05:14:44;;;;;;;;;25.50;21.25;;;;;4.06;71.58;102932.03;5053865;28;45493;-77
2022/01/11 05:17:09;;;;;;;;;39.50;28.00;;;;;3.99;71.68;102922.19;5044860;28;46997;-77
2022/01/11 05:19:35;;;;;;;;;34.25;21.25;;;;;3.44;72.22;102826.34;5037870;28;45410;-77
2022/01/11 05:22:00;;;;;;;;;42.25;24.50;;;;;3.74;71.26;102888.31;5042571;28;45482;-75
2022/01/11 05:24:25;;;;;;;;;36.50;33.50;;;;;3.99;73.02;102918.69;5049127;28;45534;-75
2022/01/11 05:26:51;;;;;;;;;39.25;27.25;;;;;3.90;72.55;102906.22;5047817;28;45404;-75
2022/01/11 05:29:16;;;;;;;;;30.50;23.25;;;;;3.93;73.11;102908.94;5039497;28;45390;-76
2022/01/11 05:31:42;;;;;;;;;32.00;21.50;;;;;3.87;72.43;102914.88;5053208;28;45354;-77
2022/01/11 05:34:07;;;;;;;;;39.50;22.00;;;;;3.87;73.43;102904.41;5061174;28;45319;-76
2022/01/11 05:36:32;;;;;;;;;32.75;23.50;;;;;3.94;72.34;102925.53;5053482;28;45997;-76
2022/01/11 05:38:58;;;;;;;;;31.67;24.33;;;;;3.82;72.33;102907.72;5053870;28;45473;-77
2022/01/11 05:41:23;;;;;;;;;33.50;27.25;;;;;4.00;72.38;102947.56;5043144;28;45467;-77
2022/01/11 05:43:49;;;;;;;;;39.25;26.75;;;;;3.98;72.86;102954.50;5057095;28;45331;-76
2022/01/11 05:46:14;;;;;;;;;39.00;29.75;;;;;3.91;72.01;102955.13;5041846;28;46282;-77
2022/01/11 05:48:44;;;;;;;;;31.75;28.50;;;;;3.97;72.55;102960.59;5041807;28;45737;-76
2022/01/11 05:51:10;;;;;;;;;30.67;26.67;;;;;3.42;72.55;102873.44;5055667;28;45527;-77
2022/01/11 05:53:35;;;;;;;;;47.33;28.00;;;;;3.87;72.67;102948.06;5045157;28;45597;-77
2022/01/11 05:56:00;;;;;;;;;38.75;24.00;;;;;3.53;71.80;102889.47;5038960;28;47599;-77
2022/01/11 05:58:26;;;;;;;;;39.50;25.00;;;;;3.78;72.52;102938.19;5057258;28;45482;-76
2022/01/11 06:00:51;;;;;;;;;39.33;31.00;;;;;3.91;72.48;102970.84;5052202;28;45444;-77
2022/01/11 06:03:16;;;;;;;;;40.67;26.67;;;;;3.87;73.02;102964.66;5056493;28;45337;-76
2022/01/11 06:05:42;;;;;;;;;32.33;21.00;;;;;3.66;71.64;102940.47;5048601;28;46128;-76
2022/01/11 06:08:08;;;;;;;;;37.00;29.25;;;;;3.73;72.03;102944.16;5056161;28;45742;-76
2022/01/11 06:10:33;;;;;;;;;34.00;24.00;;;;;3.74;71.92;102952.06;5057393;28;45376;-76
2022/01/11 06:12:58;;;;;;;;;35.50;24.75;;;;;3.76;72.21;102958.22;5048209;28;45580;-76
2022/01/11 06:15:24;;;;;;;;;39.50;27.50;;;;;3.70;72.19;102962.38;5050164;28;46042;-77
2022/01/11 06:17:50;;;;;;;;;27.33;24.67;;;;;3.77;72.14;102978.34;5056094;28;45388;-76
2022/01/11 06:20:15;;;;;;;;;36.75;25.00;;;;;3.77;72.65;102978.34;5054472;28;45482;-76
2022/01/11 06:22:42;;;;;;;;;37.75;27.75;;;;;3.59;72.63;102941.13;5056505;28;45545;-76
2022/01/11 06:25:08;;;;;;;;;28.00;22.25;;;;;3.79;73.02;102981.00;5037466;28;48545;-76
2022/01/11 06:27:37;;;;;;;;;41.00;27.67;;;;;3.75;72.80;102974.78;5056106;28;45702;-77
2022/01/11 06:30:03;;;;;;;;;37.25;27.25;;;;;3.78;72.43;102980.09;5055758;28;45467;-76
2022/01/11 06:32:28;;;;;;;;;29.00;21.33;;;;;3.53;72.47;102939.22;5037671;28;45565;-76
2022/01/11 06:34:55;;;;;;;;;40.33;26.33;;;;;3.75;71.70;102972.16;5048863;28;45421;-76
2022/01/11 06:37:21;;;;;;;;;22.33;19.00;;;;;3.69;71.90;102982.44;5035155;28;46140;-76
2022/01/11 06:39:46;;;;;;;;;36.00;24.00;;;;;3.54;71.62;102956.69;5051984;28;45626;-76
2022/01/11 06:42:11;;;;;;;;;41.00;28.67;;;;;3.55;72.68;102966.31;5051777;28;45561;-77
2022/01/11 06:44:38;;;;;;;;;41.33;27.67;;;;;3.68;72.20;102987.63;5064430;28;46121;-77
2022/01/11 06:47:04;;;;;;;;;40.33;28.33;;;;;3.67;73.03;102998.97;5060456;28;45394;-76
2022/01/11 06:49:29;;;;;;;;;40.33;30.00;;;;;3.67;71.90;102991.09;5076970;28;45512;-76
2022/01/11 06:51:54;;;;;;;;;34.33;27.00;;;;;3.46;72.63;102958.19;5073941;28;45370;-76
2022/01/11 06:54:20;;;;;;;;;36.33;26.00;;;;;3.41;72.09;102967.63;5069919;28;45554;-77
2022/01/11 06:56:45;;;;;;;;;37.00;29.33;;;;;3.47;71.72;102978.31;5065168;28;45822;-76
2022/01/11 06:59:11;;;;;;;;;29.33;25.67;;;;;3.45;71.69;102979.09;5058039;28;45449;-76
2022/01/11 07:01:36;;;;;;;;;26.75;22.25;;;;;3.56;71.74;103007.38;5074635;28;45376;-76
2022/01/11 07:04:02;;;;;;;;;26.33;19.00;;;;;3.48;72.34;103003.63;5073708;28;46153;-76
2022/01/11 07:06:27;;;;;;;;;28.00;22.67;;;;;3.43;72.50;103010.44;5071300;28;45494;-76
2022/01/11 07:08:52;;;;;;;;;37.33;33.00;;;;;3.31;73.22;102996.97;5076116;28;45354;-76
2022/01/11 07:11:18;;;;;;;;;30.33;22.67;;;;;3.45;73.08;103023.59;5057756;28;45373;-76
2022/01/11 07:13:44;;;;;;;;;25.67;22.67;;;;;3.29;72.83;103006.50;5065303;28;46039;-76
2022/01/11 07:16:09;;;;;;;;;36.00;29.00;;;;;3.34;72.47;103023.25;5076285;28;45301;-76
2022/01/11 07:18:34;;;;;;;;;36.00;31.67;;;;;3.35;72.95;103036.41;5067297;28;45597;-76
2022/01/11 07:21:00;;;;;;;;;32.33;20.33;;;;;3.28;72.75;103021.31;5067577;28;45337;-76
2022/01/11 07:23:25;;;;;;;;;31.00;24.67;;;;;3.40;72.47;103033.91;5062772;28;45351;-77
2022/01/11 07:25:50;;;;;;;;;34.67;26.67;;;;;3.37;72.95;103034.69;5076162;28;45758;-76
2022/01/11 07:28:16;;;;;;;;;37.33;25.67;;;;;3.23;73.02;103024.63;5057168;28;46108;-76
2022/01/11 07:30:42;;;;;;;;;37.00;27.00;;;;;3.18;72.32;103017.53;5075303;28;45448;-77
2022/01/11 07:33:07;;;;;;;;;23.33;7.00;;;;;3.25;72.32;103034.31;5069879;28;45525;-76
2022/01/11 07:35:34;;;;;;;;;43.33;30.67;;;;;3.23;73.32;103016.78;5050446;28;45671;-76
2022/01/11 07:37:59;;;;;;;;;50.67;32.00;;;;;3.28;72.72;103046.63;5041251;28;45608;-76
2022/01/11 07:40:25;;;;;;;;;40.00;32.33;;;;;3.31;73.35;103046.72;5065755;28;45446;-76
2022/01/11 07:42:51;;;;;;;;;49.00;30.67;;;;;3.26;73.08;103036.06;5049437;28;45454;-76
2022/01/11 07:45:17;;;;;;;;;43.67;32.00;;;;;3.23;72.37;103033.34;5034677;28;45391;-75
2022/01/11 07:47:42;;;;;;;;;37.67;31.67;;;;;3.37;73.33;103075.69;5055111;28;45482;-75
2022/01/11 07:50:08;;;;;;;;;39.00;33.67;;;;;3.34;72.35;103080.84;5045026;28;45393;-76
2022/01/11 07:52:34;;;;;;;;;34.00;29.67;;;;;3.22;71.88;103054.25;5056007;28;45402;-76
2022/01/11 07:55:00;;;;;;;;;45.00;32.00;;;;;3.36;73.13;103076.56;5053361;28;45501;-75
2022/01/11 07:57:27;;;;;;;;;36.00;29.67;;;;;3.29;72.09;103064.97;5030206;28;45376;-77
2022/01/11 07:59:52;;;;;;;;;36.00;31.67;;;;;3.20;72.71;103051.56;5041830;28;45640;-76
2022/01/11 08:02:18;;;;;;;;;46.33;29.33;;;;;3.17;72.89;103051.47;5050907;28;45586;-76
2022/01/11 08:04:43;;;;;;;;;39.00;30.67;;;;;3.14;72.79;103062.72;5032447;28;45419;-76
2022/01/11 08:07:10;;;;;;;;;53.33;34.33;;;;;3.19;73.34;103069.00;5049360;28;45337;-76
2022/01/11 08:09:36;;;;;;;;;47.00;36.33;;;;;3.27;72.76;103081.47;5051535;28;45591;-76
2022/01/11 08:12:01;;;;;;;;;41.00;27.67;;;;;3.27;73.19;103089.34;5043532;28;47332;-76
2022/01/11 08:14:27;;;;;;;;;56.67;42.67;;;;;3.32;73.73;103090.34;5050907;28;45559;-76
2022/01/11 08:16:52;;;;;;;;;48.67;34.33;;;;;3.31;73.65;103086.84;5046765;28;45332;-76
2022/01/11 08:19:20;;;;;;;;;45.33;35.67;;;;;3.25;72.93;103085.78;5052845;28;47097;-76
2022/01/11 08:21:47;;;;;;;;;48.33;30.00;;;;;3.27;72.99;103094.56;5050732;28;45672;-76
2022/01/11 08:24:14;;;;;;;;;47.00;33.67;;;;;3.07;72.17;103060.75;5051500;28;45524;-76
2022/01/11 08:26:39;;;;;;;;;45.67;34.33;;;;;3.23;72.94;103104.03;5044040;28;45691;-78
2022/01/11 08:29:04;;;;;;;;;55.00;40.00;;;;;3.24;73.41;103102.31;5034356;28;46196;-76
2022/01/11 08:31:30;;;;;;;;;59.33;35.33;;;;;3.27;73.62;103108.53;5049020;28;45478;-76
2022/01/11 08:33:55;;;;;;;;;35.67;29.00;;;;;3.28;72.77;103101.56;5029837;28;45452;-77
2022/01/11 08:36:20;;;;;;;;;41.67;29.67;;;;;3.30;72.88;103099.91;5035397;28;45423;-77
2022/01/11 08:38:46;;;;;;;;;43.00;35.67;;;;;3.26;73.43;103091.03;5029767;28;45582;-76
2022/01/11 08:41:12;;;;;;;;;52.67;36.00;;;;;3.12;72.55;103064.44;5062838;28;46257;-77
2022/01/11 08:43:37;;;;;;;;;52.67;35.00;;;;;3.28;72.95;103094.59;5068550;28;45492;-77
2022/01/11 08:46:03;;;;;;;;;58.67;38.33;;;;;3.06;72.42;103058.06;5052842;28;45372;-77
2022/01/11 08:48:29;;;;;;;;;44.67;34.00;;;;;3.19;71.46;103082.09;5068990;28;45351;-77
2022/01/11 08:50:55;;;;;;;;;53.33;31.67;;;;;3.27;72.46;103100.69;5073275;28;46455;-77
2022/01/11 08:53:21;;;;;;;;;46.67;31.67;;;;;3.10;72.60;103073.94;5068178;28;45520;-77
2022/01/11 08:55:50;;;;;;;;;42.67;29.33;;;;;3.12;72.92;103069.66;5068565;28;45427;-77
2022/01/11 08:58:17;;;;;;;;;30.33;26.67;;;;;3.15;73.03;103080.22;5050983;28;45455;-76
2022/01/11 09:00:43;;;;;;;;;52.00;30.00;;;;;3.22;72.55;103093.50;5065840;28;45368;-76
2022/01/11 09:03:09;;;;;;;;;49.00;33.67;;;;;3.24;72.30;103097.09;5069655;28;45504;-77
2022/01/11 09:05:34;;;;;;;;;45.00;38.00;;;;;3.30;71.81;103115.59;5072180;28;45434;-77
2022/01/11 09:07:59;;;;;;;;;48.33;34.00;;;;;3.16;72.62;103078.50;5070823;28;45524;-76
2022/01/11 09:10:25;;;;;;;;;39.67;29.33;;;;;3.33;72.23;103105.25;5074851;28;45709;-76
2022/01/11 09:12:50;;;;;;;;;42.67;35.67;;;;;3.27;72.18;103105.03;5057456;28;46773;-77
2022/01/11 09:15:16;;;;;;;;;36.00;34.00;;;;;3.30;72.15;103118.22;5047736;28;45368;-76
2022/01/11 09:17:42;;;;;;;;;27.67;18.33;;;;;3.29;71.44;103116.44;5074558;28;45407;-76
2022/01/11 09:20:10;;;;;;;;;48.67;34.00;;;;;3.08;71.68;103090.41;5074262;28;45461;-76
2022/01/11 09:22:35;;;;;;;;;45.33;33.00;;;;;3.21;72.26;103125.72;5073483;28;45420;-77
2022/01/11 09:25:01;;;;;;;;;34.33;32.00;;;;;3.03;72.70;103095.50;5072915;28;45749;-77
2022/01/11 09:27:26;;;;;;;;;42.00;28.67;;;;;3.15;72.13;103137.78;5073005;28;45478;-77
2022/01/11 09:29:52;;;;;;;;;56.67;38.67;;;;;3.05;72.25;103129.56;5069189;28;45469;-78
2022/01/11 09:32:17;;;;;;;;;52.33;37.67;;;;;3.02;72.08;103132.97;5071552;28;45375;-77
2022/01/11 09:34:43;;;;;;;;;42.33;33.00;;;;;2.90;73.36;103115.09;5055099;28;45449;-78
2022/01/11 09:37:10;;;;;;;;;44.33;38.67;;;;;3.01;72.70;103140.75;5072741;28;45418;-77
2022/01/11 09:39:36;;;;;;;;;53.33;37.67;;;;;3.01;72.54;103143.38;5074221;28;46161;-78
2022/01/11 09:42:05;;;;;;;;;34.33;23.00;;;;;2.95;72.97;103144.06;5070736;28;45476;-78
2022/01/11 09:44:32;;;;;;;;;44.00;37.67;;;;;2.99;73.00;103139.81;5070703;28;45656;-77
2022/01/11 09:46:58;;;;;;;;;49.00;36.33;;;;;3.02;72.85;103150.38;5068006;28;45502;-77
2022/01/11 09:49:24;;;;;;;;;40.00;29.67;;;;;2.98;72.58;103149.41;5073195;28;46261;-76
2022/01/11 09:51:51;;;;;;;;;46.67;32.33;;;;;2.90;72.69;103130.78;5073192;28;45596;-76
2022/01/11 09:54:21;;;;;;;;;45.00;36.33;;;;;3.02;72.96;103150.38;5074616;28;45375;-76
2022/01/11 09:56:46;;;;;;;;;42.67;35.00;;;;;3.03;72.98;103147.84;5068152;28;45517;-76
2022/01/11 09:59:12;;;;;;;;;37.33;21.67;;;;;2.80;72.91;103112.13;5071504;28;45537;-77
2022/01/11 10:01:37;;;;;;;;;42.00;25.67;;;;;3.12;72.63;103155.13;5087246;28;45500;-77
2022/01/11 10:04:11;;;;;;;;;46.33;34.67;;;;;3.09;73.31;103139.28;5077898;28;45474;-77
2022/01/11 10:06:41;;;;;;;;;38.67;33.67;;;;;3.08;73.08;103124.44;5072521;28;45525;-77
2022/01/11 10:09:18;;;;;;;;;51.67;38.33;;;;;3.12;73.51;103126.34;5070815;28;45516;-76
2022/01/11 10:11:46;;;;;;;;;53.67;34.00;;;;;3.22;73.57;103138.88;5067101;28;45531;-76
2022/01/11 10:14:16;;;;;;;;;28.67;22.67;;;;;3.39;73.06;103158.69;5069928;28;45414;-76
2022/01/11 10:16:42;;;;;;;;;50.00;39.00;;;;;3.30;72.74;103141.78;5069350;28;45541;-77
2022/01/11 10:19:19;;;;;;;;;38.67;30.33;;;;;3.47;73.18;103165.88;5073445;28;46174;-76
2022/01/11 10:21:47;;;;;;;;;48.00;34.00;;;;;3.51;72.86;103166.06;5071052;28;46255;-76
2022/01/11 10:24:38;;;;;;;;;49.67;36.67;;;;;3.54;72.59;103167.91;5071832;28;45460;-76
2022/01/11 10:27:07;;;;;;;;;44.67;35.00;;;;;3.17;71.78;103107.31;5066917;28;45577;-76
2022/01/11 10:29:38;;;;;;;;;35.00;20.67;;;;;3.54;72.18;103175.75;5053878;28;48404;-76
2022/01/11 10:32:10;;;;;;;;;35.33;30.00;;;;;3.39;72.86;103150.81;5068961;28;45450;-77
2022/01/11 10:34:35;;;;;;;;;47.67;37.67;;;;;3.53;72.77;103169.63;5071037;28;45525;-77
2022/01/11 10:37:03;;;;;;;;;42.33;30.67;;;;;3.55;71.34;103178.41;5070132;28;45530;-77
2022/01/11 10:39:32;;;;;;;;;39.00;29.33;;;;;3.55;72.73;103194.09;5072646;28;46184;-78
2022/01/11 10:41:59;;;;;;;;;53.00;34.33;;;;;3.58;71.74;103188.09;5051038;28;45521;-78
2022/01/11 10:44:51;;;;;;;;;56.67;36.33;;;;;3.64;72.30;103185.69;5053743;28;45461;-78
2022/01/11 10:47:30;;;;;;;;;45.00;29.67;;;;;3.65;72.47;103182.25;5064981;28;45685;-76
2022/01/11 10:50:04;;;;;;;;;38.67;31.00;;;;;3.72;72.34;103165.88;5072864;28;46401;-78
2022/01/11 10:52:34;;;;;;;;;44.33;31.67;;;;;3.93;72.33;103180.50;5071470;28;45398;-76
2022/01/11 10:55:02;;;;;;;;;43.33;37.33;;;;;3.43;71.66;103078.50;5053450;28;45399;-75
2022/01/11 10:57:36;;;;;;;;;48.33;33.33;;;;;4.14;71.34;103175.06;5068654;28;45308;-77
2022/01/11 11:00:15;;;;;;;;;48.67;35.00;;;;;4.15;72.41;103143.66;5050774;28;47228;-76
2022/01/11 11:02:42;;;;;;;;;17.00;11.00;;;;;4.44;71.62;103159.38;5072080;28;45493;-76
2022/01/11 11:05:37;;;;;;;;;55.00;37.67;;;;;4.53;71.96;103146.56;5072716;28;46163;-76
2022/01/11 11:08:06;;;;;;;;;39.75;28.00;;;;;4.80;70.74;103166.56;5069301;28;45434;-76
2022/01/11 11:10:36;;;;;;;;;40.67;34.00;;;;;4.94;69.66;103160.84;5052724;28;46323;-77
2022/01/11 11:13:03;;;;;;;;;42.75;33.75;;;;;5.00;69.03;103155.75;5072595;28;45578;-76
2022/01/11 11:15:35;;;;;;;;;35.75;30.25;;;;;5.10;69.57;103156.00;5064713;28;45439;-77
2022/01/11 11:18:03;;;;;;;;;36.50;18.75;;;;;5.27;68.68;103162.59;5053761;28;45393;-77
2022/01/11 11:20:30;;;;;;;;;47.75;35.25;;;;;5.44;68.22;103170.88;5068782;28;46261;-78
2022/01/11 11:22:56;;;;;;;;;32.00;25.25;;;;;5.41;68.15;103157.69;5069146;28;45591;-78
2022/01/11 11:25:21;;;;;;;;;48.50;32.50;;;;;5.56;68.79;103167.69;5069866;28;45564;-77